createdAt,value
2018-03-28T00:00:22.428Z,0
2018-03-28T00:01:22.413Z,0
2018-03-28T00:02:22.660Z,0
2018-03-28T00:03:22.633Z,0
2018-03-28T00:04:22.883Z,0
2018-03-28T00:05:22.358Z,0
2018-03-28T00:06:22.598Z,0
2018-03-28T00:07:22.580Z,0
2018-03-28T00:08:22.570Z,0
2018-03-28T00:09:22.304Z,0
2018-03-28T00:10:22.541Z,0
2018-03-28T00:11:22.772Z,0
2018-03-28T00:12:22.257Z,0
2018-03-28T00:13:22.501Z,0
2018-03-28T00:14:22.256Z,0
2018-03-28T00:15:22.468Z,0
2018-03-28T00:16:22.203Z,0
2018-03-28T00:17:22.209Z,0
2018-03-28T00:18:22.170Z,0
2018-03-28T00:19:21.905Z,0
2018-03-28T00:20:22.396Z,0
2018-03-28T00:21:22.377Z,0
2018-03-28T00:22:22.364Z,0
2018-03-28T00:23:22.098Z,0
2018-03-28T00:24:22.341Z,0
2018-03-28T00:25:22.121Z,0
2018-03-28T00:26:22.074Z,0
2018-03-28T00:27:22.066Z,0
2018-03-28T00:28:22.035Z,0
2018-03-28T00:29:22.292Z,0
2018-03-28T00:30:22.261Z,0
2018-03-28T00:31:22.238Z,0
2018-03-28T00:32:21.977Z,0
2018-03-28T00:33:21.959Z,0
2018-03-28T00:34:22.198Z,0
2018-03-28T00:35:22.178Z,0
2018-03-28T00:36:22.166Z,0
2018-03-28T00:37:22.147Z,0
2018-03-28T00:38:22.137Z,0
2018-03-28T00:39:22.118Z,0
2018-03-28T00:40:22.113Z,0
2018-03-28T00:41:22.097Z,0
2018-03-28T00:42:22.137Z,0
2018-03-28T00:43:21.560Z,0
2018-03-28T00:44:22.050Z,0
2018-03-28T00:45:22.046Z,0
2018-03-28T00:46:22.020Z,0
2018-03-28T00:47:22.011Z,0
2018-03-28T00:48:22.001Z,0
2018-03-28T00:49:21.980Z,0
2018-03-28T00:50:21.710Z,0
2018-03-28T00:51:21.950Z,0
2018-03-28T00:52:21.942Z,0
2018-03-28T00:53:21.920Z,0
2018-03-28T00:54:21.956Z,0
2018-03-28T00:55:21.893Z,0
2018-03-28T00:56:22.094Z,0
2018-03-28T00:57:21.861Z,0
2018-03-28T00:58:21.988Z,0
2018-03-28T00:59:21.578Z,0
2018-03-28T01:00:21.816Z,0
2018-03-28T01:01:21.803Z,0
2018-03-28T01:02:21.815Z,0
2018-03-28T01:03:21.521Z,0
2018-03-28T01:04:21.518Z,0
2018-03-28T01:05:21.754Z,0
2018-03-28T01:06:21.481Z,0
2018-03-28T01:07:21.727Z,0
2018-03-28T01:08:21.455Z,0
2018-03-28T01:09:21.694Z,0
2018-03-28T01:10:21.685Z,0
2018-03-28T01:11:21.421Z,0
2018-03-28T01:12:21.139Z,0
2018-03-28T01:13:21.377Z,0
2018-03-28T01:14:21.873Z,0
2018-03-28T01:15:21.351Z,0
2018-03-28T01:16:21.082Z,0
2018-03-28T01:17:21.064Z,0
2018-03-28T01:18:21.304Z,0
2018-03-28T01:19:21.292Z,0
2018-03-28T01:20:21.027Z,0
2018-03-28T01:21:21.516Z,0
2018-03-28T01:22:21.247Z,0
2018-03-28T01:23:21.486Z,0
2018-03-28T01:24:21.478Z,0
2018-03-28T01:25:20.950Z,0
2018-03-28T01:26:21.446Z,0
2018-03-28T01:27:21.426Z,0
2018-03-28T01:28:21.414Z,0
2018-03-28T01:29:21.401Z,0
2018-03-28T01:30:21.409Z,0
2018-03-28T01:31:21.391Z,0
2018-03-28T01:32:21.368Z,0
2018-03-28T01:33:21.342Z,0
2018-03-28T01:34:21.340Z,0
2018-03-28T01:35:20.807Z,0
2018-03-28T01:36:21.302Z,0
2018-03-28T01:37:21.282Z,0
2018-03-28T01:38:21.270Z,0
2018-03-28T01:39:21.003Z,0
2018-03-28T01:40:21.241Z,0
2018-03-28T01:41:21.243Z,0
2018-03-28T01:42:20.706Z,0
2018-03-28T01:43:21.209Z,0
2018-03-28T01:44:21.188Z,0
2018-03-28T01:45:21.421Z,0
2018-03-28T01:46:21.169Z,0
2018-03-28T01:47:21.140Z,0
2018-03-28T01:48:21.142Z,0
2018-03-28T01:49:21.110Z,0
2018-03-28T01:50:21.191Z,0
2018-03-28T01:51:21.095Z,0
2018-03-28T01:52:20.822Z,0
2018-03-28T01:53:20.803Z,0
2018-03-28T01:54:21.044Z,0
2018-03-28T01:55:20.772Z,0
2018-03-28T01:56:21.022Z,0
2018-03-28T01:57:21.005Z,0
2018-03-28T01:58:20.479Z,0
2018-03-28T01:59:20.969Z,0
2018-03-28T02:00:20.965Z,0
2018-03-28T02:01:20.689Z,0
2018-03-28T02:02:20.925Z,0
2018-03-28T02:03:20.661Z,0
2018-03-28T02:04:20.906Z,0
2018-03-28T02:05:20.632Z,0
2018-03-28T02:06:20.870Z,0
2018-03-28T02:07:20.603Z,0
2018-03-28T02:08:20.847Z,0
2018-03-28T02:09:20.837Z,0
2018-03-28T02:10:20.572Z,0
2018-03-28T02:11:20.295Z,0
2018-03-28T02:12:20.531Z,0
2018-03-28T02:13:20.775Z,0
2018-03-28T02:14:20.773Z,0
2018-03-28T02:15:20.747Z,0
2018-03-28T02:16:20.979Z,0
2018-03-28T02:17:20.462Z,0
2018-03-28T02:18:20.450Z,0
2018-03-28T02:19:20.693Z,0
2018-03-28T02:20:20.421Z,0
2018-03-28T02:21:20.664Z,0
2018-03-28T02:22:20.650Z,0
2018-03-28T02:23:20.384Z,0
2018-03-28T02:24:20.365Z,0
2018-03-28T02:25:19.846Z,0
2018-03-28T02:26:20.639Z,0
2018-03-28T02:27:20.576Z,0
2018-03-28T02:28:20.312Z,0
2018-03-28T02:29:20.549Z,0
2018-03-28T02:30:20.033Z,0
2018-03-28T02:31:20.525Z,0
2018-03-28T02:32:20.514Z,0
2018-03-28T02:33:20.252Z,0
2018-03-28T02:34:20.243Z,0
2018-03-28T02:35:20.469Z,0
2018-03-28T02:36:20.469Z,0
2018-03-28T02:37:20.462Z,0
2018-03-28T02:38:20.177Z,0
2018-03-28T02:39:20.425Z,0
2018-03-28T02:40:20.164Z,0
2018-03-28T02:41:20.399Z,0
2018-03-28T02:42:19.862Z,0
2018-03-28T02:43:20.364Z,0
2018-03-28T02:44:19.839Z,0
2018-03-28T02:45:20.341Z,0
2018-03-28T02:46:20.333Z,0
2018-03-28T02:47:20.561Z,0
2018-03-28T02:48:20.293Z,0
2018-03-28T02:49:20.275Z,0
2018-03-28T02:50:19.752Z,0
2018-03-28T02:51:19.997Z,0
2018-03-28T02:52:20.240Z,0
2018-03-28T02:53:20.222Z,0
2018-03-28T02:54:19.443Z,0
2018-03-28T02:55:20.199Z,0
2018-03-28T02:56:19.931Z,0
2018-03-28T02:57:20.160Z,0
2018-03-28T02:58:20.156Z,0
2018-03-28T02:59:19.883Z,0
2018-03-28T03:00:19.873Z,0
2018-03-28T03:01:20.120Z,0
2018-03-28T03:02:20.101Z,0
2018-03-28T03:03:20.077Z,0
2018-03-28T03:04:20.074Z,0
2018-03-28T03:05:20.055Z,0
2018-03-28T03:06:20.037Z,0
2018-03-28T03:07:20.036Z,0
2018-03-28T03:08:20.016Z,0
2018-03-28T03:09:20.004Z,0
2018-03-28T03:10:19.775Z,0
2018-03-28T03:11:19.965Z,0
2018-03-28T03:12:19.951Z,0
2018-03-28T03:13:19.684Z,0
2018-03-28T03:14:19.924Z,0
2018-03-28T03:15:19.921Z,0
2018-03-28T03:16:19.896Z,0
2018-03-28T03:17:19.895Z,0
2018-03-28T03:18:19.875Z,0
2018-03-28T03:19:19.866Z,0
2018-03-28T03:20:19.844Z,0
2018-03-28T03:21:19.833Z,0
2018-03-28T03:22:19.827Z,0
2018-03-28T03:23:19.802Z,0
2018-03-28T03:24:19.797Z,0
2018-03-28T03:25:19.772Z,0
2018-03-28T03:26:19.767Z,0
2018-03-28T03:27:19.748Z,0
2018-03-28T03:28:19.742Z,0
2018-03-28T03:29:19.718Z,0
2018-03-28T03:30:19.720Z,0
2018-03-28T03:31:19.446Z,0
2018-03-28T03:32:19.806Z,0
2018-03-28T03:33:19.667Z,0
2018-03-28T03:34:19.650Z,0
2018-03-28T03:35:19.391Z,0
2018-03-28T03:36:19.629Z,0
2018-03-28T03:37:19.104Z,0
2018-03-28T03:38:19.607Z,0
2018-03-28T03:39:19.331Z,0
2018-03-28T03:40:19.064Z,0
2018-03-28T03:41:19.306Z,0
2018-03-28T03:42:19.548Z,0
2018-03-28T03:43:19.291Z,0
2018-03-28T03:44:19.010Z,0
2018-03-28T03:45:19.252Z,0
2018-03-28T03:46:19.488Z,0
2018-03-28T03:47:19.479Z,0
2018-03-28T03:48:19.459Z,0
2018-03-28T03:49:19.201Z,0
2018-03-28T03:50:19.431Z,0
2018-03-28T03:51:19.479Z,0
2018-03-28T03:52:19.410Z,0
2018-03-28T03:53:19.397Z,0
2018-03-28T03:54:19.408Z,0
2018-03-28T03:55:19.371Z,0
2018-03-28T03:56:19.359Z,0
2018-03-28T03:57:19.339Z,0
2018-03-28T03:58:19.325Z,0
2018-03-28T03:59:19.315Z,0
2018-03-28T04:00:19.049Z,0
2018-03-28T04:01:19.287Z,0
2018-03-28T04:02:19.268Z,0
2018-03-28T04:03:19.256Z,0
2018-03-28T04:04:18.996Z,0
2018-03-28T04:05:18.976Z,0
2018-03-28T04:06:19.221Z,0
2018-03-28T04:07:19.203Z,0
2018-03-28T04:08:19.192Z,0
2018-03-28T04:09:19.179Z,0
2018-03-28T04:10:19.172Z,0
2018-03-28T04:11:18.893Z,0
2018-03-28T04:12:19.132Z,0
2018-03-28T04:13:18.880Z,0
2018-03-28T04:14:18.602Z,0
2018-03-28T04:15:19.103Z,0
2018-03-28T04:16:19.084Z,0
2018-03-28T04:17:18.818Z,0
2018-03-28T04:18:19.054Z,0
2018-03-28T04:19:18.792Z,0
2018-03-28T04:20:19.026Z,0
2018-03-28T04:21:19.016Z,0
2018-03-28T04:22:18.493Z,0
2018-03-28T04:23:18.994Z,0
2018-03-28T04:24:18.973Z,0
2018-03-28T04:25:18.965Z,0
2018-03-28T04:26:18.955Z,0
2018-03-28T04:27:18.934Z,4
2018-03-28T04:28:18.916Z,4
2018-03-28T04:29:18.654Z,0
2018-03-28T04:30:18.642Z,4
2018-03-28T04:31:18.371Z,4
2018-03-28T04:32:18.870Z,4
2018-03-28T04:33:18.866Z,4
2018-03-28T04:34:18.836Z,8
2018-03-28T04:35:18.823Z,4
2018-03-28T04:36:18.813Z,8
2018-03-28T04:37:18.800Z,8
2018-03-28T04:38:18.784Z,12
2018-03-28T04:39:18.010Z,12
2018-03-28T04:40:18.757Z,12
2018-03-28T04:41:18.741Z,16
2018-03-28T04:42:18.741Z,16
2018-03-28T04:43:18.718Z,20
2018-03-28T04:44:18.702Z,20
2018-03-28T04:45:18.444Z,24
2018-03-28T04:46:18.428Z,32
2018-03-28T04:47:18.159Z,32
2018-03-28T04:48:18.651Z,40
2018-03-28T04:49:18.634Z,44
2018-03-28T04:50:18.624Z,48
2018-03-28T04:51:18.361Z,52
2018-03-28T04:52:18.592Z,56
2018-03-28T04:53:18.590Z,60
2018-03-28T04:54:18.571Z,64
2018-03-28T04:55:18.553Z,72
2018-03-28T04:56:18.577Z,80
2018-03-28T04:57:18.282Z,88
2018-03-28T04:58:18.516Z,96
2018-03-28T04:59:18.505Z,100
2018-03-28T05:00:18.491Z,108
2018-03-28T05:01:18.487Z,116
2018-03-28T05:02:18.467Z,124
2018-03-28T05:03:18.456Z,132
2018-03-28T05:04:18.395Z,140
2018-03-28T05:05:18.423Z,160
2018-03-28T05:06:18.417Z,176
2018-03-28T05:07:18.150Z,196
2018-03-28T05:08:18.130Z,224
2018-03-28T05:09:18.114Z,244
2018-03-28T05:10:18.371Z,260
2018-03-28T05:11:18.337Z,280
2018-03-28T05:12:18.328Z,296
2018-03-28T05:13:18.057Z,308
2018-03-28T05:14:18.304Z,320
2018-03-28T05:15:18.292Z,320
2018-03-28T05:16:18.024Z,324
2018-03-28T05:17:18.258Z,328
2018-03-28T05:18:18.023Z,324
2018-03-28T05:19:18.233Z,324
2018-03-28T05:20:18.216Z,332
2018-03-28T05:21:17.953Z,340
2018-03-28T05:22:17.948Z,356
2018-03-28T05:23:18.427Z,384
2018-03-28T05:24:17.906Z,412
2018-03-28T05:25:18.147Z,436
2018-03-28T05:26:18.132Z,464
2018-03-28T05:27:18.122Z,496
2018-03-28T05:28:17.905Z,516
2018-03-28T05:29:18.098Z,524
2018-03-28T05:30:17.848Z,524
2018-03-28T05:31:17.876Z,524
2018-03-28T05:32:18.055Z,512
2018-03-28T05:33:17.802Z,512
2018-03-28T05:34:17.773Z,512
2018-03-28T05:35:17.779Z,524
2018-03-28T05:36:18.005Z,544
2018-03-28T05:37:17.993Z,576
2018-03-28T05:38:17.988Z,612
2018-03-28T05:39:17.712Z,652
2018-03-28T05:40:17.947Z,692
2018-03-28T05:41:17.952Z,732
2018-03-28T05:42:17.918Z,780
2018-03-28T05:43:17.965Z,832
2018-03-28T05:44:17.918Z,880
2018-03-28T05:45:17.631Z,928
2018-03-28T05:46:17.613Z,964
2018-03-28T05:47:17.851Z,972
2018-03-28T05:48:17.844Z,980
2018-03-28T05:49:17.823Z,996
2018-03-28T05:50:17.872Z,1012
2018-03-28T05:51:17.813Z,1016
2018-03-28T05:52:17.806Z,1024
2018-03-28T05:53:17.009Z,1012
2018-03-28T05:54:18.021Z,1052
2018-03-28T05:55:17.742Z,1092
2018-03-28T05:56:17.732Z,1104
2018-03-28T05:57:17.460Z,1052
2018-03-28T05:58:17.452Z,992
2018-03-28T05:59:17.692Z,1028
2018-03-28T06:00:17.676Z,1052
2018-03-28T06:01:17.664Z,1080
2018-03-28T06:02:17.658Z,1124
2018-03-28T06:03:17.632Z,1176
2018-03-28T06:04:17.367Z,1236
2018-03-28T06:05:17.602Z,1248
2018-03-28T06:06:17.590Z,1256
2018-03-28T06:07:17.327Z,1276
2018-03-28T06:08:17.314Z,1276
2018-03-28T06:09:17.588Z,1280
2018-03-28T06:10:17.293Z,1284
2018-03-28T06:11:17.266Z,1260
2018-03-28T06:12:17.518Z,1276
2018-03-28T06:13:17.497Z,1288
2018-03-28T06:14:17.482Z,1240
2018-03-28T06:15:17.466Z,1184
2018-03-28T06:16:17.199Z,1192
2018-03-28T06:17:17.202Z,1212
2018-03-28T06:18:17.438Z,1204
2018-03-28T06:19:17.420Z,1228
2018-03-28T06:20:17.397Z,1272
2018-03-28T06:21:17.380Z,1284
2018-03-28T06:22:17.369Z,1212
2018-03-28T06:23:17.371Z,1272
2018-03-28T06:24:17.430Z,1276
2018-03-28T06:25:17.582Z,1316
2018-03-28T06:26:17.314Z,1392
2018-03-28T06:27:17.049Z,1424
2018-03-28T06:28:17.284Z,1504
2018-03-28T06:29:17.265Z,1568
2018-03-28T06:30:16.998Z,1664
2018-03-28T06:31:17.276Z,1788
2018-03-28T06:32:17.249Z,1864
2018-03-28T06:33:16.966Z,1888
2018-03-28T06:34:17.214Z,1872
2018-03-28T06:35:17.179Z,1896
2018-03-28T06:36:17.094Z,2052
2018-03-28T06:37:16.911Z,2064
2018-03-28T06:38:16.894Z,2264
2018-03-28T06:39:17.119Z,2392
2018-03-28T06:40:17.111Z,2336
2018-03-28T06:41:16.589Z,2264
2018-03-28T06:42:17.092Z,1964
2018-03-28T06:43:17.075Z,1684
2018-03-28T06:44:17.054Z,1652
2018-03-28T06:45:16.535Z,1572
2018-03-28T06:46:17.026Z,1552
2018-03-28T06:47:17.142Z,1456
2018-03-28T06:48:16.746Z,1560
2018-03-28T06:49:16.993Z,1532
2018-03-28T06:50:16.971Z,1616
2018-03-28T06:51:16.703Z,1656
2018-03-28T06:52:16.692Z,1604
2018-03-28T06:53:16.921Z,1684
2018-03-28T06:54:16.159Z,1648
2018-03-28T06:55:16.662Z,1724
2018-03-28T06:56:16.897Z,1568
2018-03-28T06:57:16.605Z,1596
2018-03-28T06:58:16.343Z,1468
2018-03-28T06:59:16.575Z,1488
2018-03-28T07:00:16.311Z,1548
2018-03-28T07:01:16.563Z,1456
2018-03-28T07:02:16.535Z,1432
2018-03-28T07:03:16.269Z,1416
2018-03-28T07:04:16.521Z,1276
2018-03-28T07:05:16.506Z,1292
2018-03-28T07:06:16.731Z,1200
2018-03-28T07:07:16.713Z,1184
2018-03-28T07:08:16.450Z,1124
2018-03-28T07:09:16.442Z,1224
2018-03-28T07:10:16.673Z,1204
2018-03-28T07:11:16.672Z,1172
2018-03-28T07:12:16.647Z,1148
2018-03-28T07:13:16.638Z,1248
2018-03-28T07:14:16.623Z,1220
2018-03-28T07:15:16.345Z,1148
2018-03-28T07:16:16.619Z,988
2018-03-28T07:17:16.635Z,1084
2018-03-28T07:18:16.299Z,1184
2018-03-28T07:19:16.563Z,1144
2018-03-28T07:20:16.532Z,1124
2018-03-28T07:21:16.509Z,1232
2018-03-28T07:22:16.600Z,1252
2018-03-28T07:23:16.279Z,1404
2018-03-28T07:24:16.517Z,1420
2018-03-28T07:25:16.222Z,1540
2018-03-28T07:26:16.190Z,1636
2018-03-28T07:27:16.462Z,1712
2018-03-28T07:28:17.222Z,1792
2018-03-28T07:29:16.396Z,1912
2018-03-28T07:30:16.446Z,1992
2018-03-28T07:31:16.410Z,2020
2018-03-28T07:32:16.138Z,2192
2018-03-28T07:33:16.415Z,2036
2018-03-28T07:34:16.398Z,2188
2018-03-28T07:35:16.388Z,1964
2018-03-28T07:36:16.327Z,2304
2018-03-28T07:37:16.031Z,2204
2018-03-28T07:38:16.560Z,2420
2018-03-28T07:39:16.245Z,2384
2018-03-28T07:40:15.986Z,2116
2018-03-28T07:41:16.246Z,2144
2018-03-28T07:42:15.973Z,2124
2018-03-28T07:43:15.691Z,2236
2018-03-28T07:44:15.966Z,1932
2018-03-28T07:45:16.176Z,2140
2018-03-28T07:46:15.918Z,2224
2018-03-28T07:47:15.649Z,2168
2018-03-28T07:48:15.787Z,2080
2018-03-28T07:49:15.962Z,2060
2018-03-28T07:50:15.680Z,2136
2018-03-28T07:51:16.202Z,2048
2018-03-28T07:52:16.376Z,2044
2018-03-28T07:53:16.173Z,1980
2018-03-28T07:54:15.848Z,2136
2018-03-28T07:55:16.072Z,2240
2018-03-28T07:56:16.110Z,2248
2018-03-28T07:57:16.010Z,2316
2018-03-28T07:58:15.980Z,2380
2018-03-28T07:59:15.972Z,2588
2018-03-28T08:00:15.690Z,2496
2018-03-28T08:01:15.927Z,2960
2018-03-28T08:02:15.678Z,2464
2018-03-28T08:03:15.957Z,2028
2018-03-28T08:04:15.932Z,2164
2018-03-28T08:05:15.638Z,1956
2018-03-28T08:06:15.348Z,1940
2018-03-28T08:07:15.601Z,1948
2018-03-28T08:08:15.831Z,1956
2018-03-28T08:09:15.574Z,1924
2018-03-28T08:10:15.544Z,1868
2018-03-28T08:11:15.808Z,2340
2018-03-28T08:12:15.767Z,2288
2018-03-28T08:13:15.273Z,2200
2018-03-28T08:14:15.776Z,2172
2018-03-28T08:15:15.746Z,2132
2018-03-28T08:16:15.474Z,2112
2018-03-28T08:17:15.200Z,2256
2018-03-28T08:18:15.700Z,2384
2018-03-28T08:19:15.337Z,2272
2018-03-28T08:20:15.165Z,2264
2018-03-28T08:21:15.672Z,2120
2018-03-28T08:22:15.376Z,2588
2018-03-28T08:23:15.635Z,2336
2018-03-28T08:24:15.625Z,2428
2018-03-28T08:25:15.601Z,2424
2018-03-28T08:26:15.581Z,2532
2018-03-28T08:27:15.551Z,2404
2018-03-28T08:28:15.546Z,2240
2018-03-28T08:29:15.304Z,2068
2018-03-28T08:30:15.541Z,2224
2018-03-28T08:31:15.507Z,1948
2018-03-28T08:32:15.240Z,1940
2018-03-28T08:33:15.241Z,2000
2018-03-28T08:34:15.254Z,2288
2018-03-28T08:35:15.426Z,2304
2018-03-28T08:36:15.417Z,2012
2018-03-28T08:37:15.408Z,2404
2018-03-28T08:38:15.154Z,2628
2018-03-28T08:39:15.438Z,2564
2018-03-28T08:40:15.390Z,2884
2018-03-28T08:41:15.105Z,2808
2018-03-28T08:42:15.372Z,2944
2018-03-28T08:43:15.327Z,3412
2018-03-28T08:44:15.301Z,3584
2018-03-28T08:45:15.333Z,3644
2018-03-28T08:46:14.775Z,3408
2018-03-28T08:47:15.267Z,3916
2018-03-28T08:48:15.267Z,3840
2018-03-28T08:49:14.978Z,3516
2018-03-28T08:50:14.960Z,4044
2018-03-28T08:51:15.205Z,4312
2018-03-28T08:52:15.332Z,3968
2018-03-28T08:53:14.932Z,4024
2018-03-28T08:54:15.181Z,4464
2018-03-28T08:55:15.165Z,4072
2018-03-28T08:56:15.159Z,4148
2018-03-28T08:57:14.873Z,4392
2018-03-28T08:58:15.107Z,4340
2018-03-28T08:59:15.113Z,4744
2018-03-28T09:00:15.322Z,4544
2018-03-28T09:01:15.053Z,4756
2018-03-28T09:02:15.063Z,5184
2018-03-28T09:03:15.041Z,5272
2018-03-28T09:04:15.030Z,5984
2018-03-28T09:05:14.755Z,5744
2018-03-28T09:06:14.732Z,6052
2018-03-28T09:07:14.976Z,5532
2018-03-28T09:08:14.967Z,5932
2018-03-28T09:09:14.942Z,5844
2018-03-28T09:10:14.945Z,6172
2018-03-28T09:11:14.681Z,5992
2018-03-28T09:12:14.904Z,6276
2018-03-28T09:13:14.881Z,5800
2018-03-28T09:14:14.875Z,5816
2018-03-28T09:15:14.881Z,6708
2018-03-28T09:16:14.593Z,7248
2018-03-28T09:17:14.579Z,7212
2018-03-28T09:18:14.850Z,6008
2018-03-28T09:19:14.640Z,6704
2018-03-28T09:20:14.532Z,6372
2018-03-28T09:21:14.265Z,6844
2018-03-28T09:22:14.508Z,5844
2018-03-28T09:23:14.807Z,5056
2018-03-28T09:24:14.490Z,5328
2018-03-28T09:25:14.484Z,5744
2018-03-28T09:26:14.210Z,5880
2018-03-28T09:27:14.223Z,5576
2018-03-28T09:28:14.706Z,5512
2018-03-28T09:29:14.419Z,5628
2018-03-28T09:30:14.436Z,5736
2018-03-28T09:31:14.390Z,5560
2018-03-28T09:32:14.616Z,4948
2018-03-28T09:33:14.677Z,4892
2018-03-28T09:34:14.353Z,4716
2018-03-28T09:35:14.575Z,4648
2018-03-28T09:36:14.351Z,4036
2018-03-28T09:37:14.550Z,4144
2018-03-28T09:38:14.560Z,3752
2018-03-28T09:39:14.294Z,4084
2018-03-28T09:40:14.291Z,3504
2018-03-28T09:41:14.545Z,3600
2018-03-28T09:42:14.488Z,4032
2018-03-28T09:43:14.245Z,4180
2018-03-28T09:44:14.541Z,3284
2018-03-28T09:45:13.959Z,4000
2018-03-28T09:46:14.207Z,4172
2018-03-28T09:47:14.423Z,4040
2018-03-28T09:48:14.401Z,4268
2018-03-28T09:49:14.432Z,3700
2018-03-28T09:50:14.372Z,3912
2018-03-28T09:51:14.101Z,5216
2018-03-28T09:52:14.349Z,4840
2018-03-28T09:53:14.326Z,4728
2018-03-28T09:54:14.325Z,4988
2018-03-28T09:55:14.046Z,5048
2018-03-28T09:56:14.354Z,5864
2018-03-28T09:57:13.519Z,5452
2018-03-28T09:58:14.260Z,5204
2018-03-28T09:59:14.005Z,5068
2018-03-28T10:00:14.024Z,5564
2018-03-28T10:01:14.226Z,5220
2018-03-28T10:02:14.200Z,4888
2018-03-28T10:03:13.748Z,5516
2018-03-28T10:04:13.930Z,4900
2018-03-28T10:05:14.168Z,5264
2018-03-28T10:06:14.169Z,5900
2018-03-28T10:07:14.141Z,4916
2018-03-28T10:08:14.368Z,5560
2018-03-28T10:09:13.896Z,4884
2018-03-28T10:10:14.153Z,5080
2018-03-28T10:11:14.111Z,5056
2018-03-28T10:12:14.113Z,5248
2018-03-28T10:13:13.588Z,4436
2018-03-28T10:14:14.075Z,5072
2018-03-28T10:15:14.059Z,4536
2018-03-28T10:16:14.016Z,4868
2018-03-28T10:17:14.017Z,4920
2018-03-28T10:18:13.489Z,5184
2018-03-28T10:19:13.460Z,5204
2018-03-28T10:20:13.952Z,5120
2018-03-28T10:21:13.948Z,4648
2018-03-28T10:22:13.420Z,5156
2018-03-28T10:23:13.659Z,5228
2018-03-28T10:24:13.919Z,5652
2018-03-28T10:25:13.694Z,4556
2018-03-28T10:26:13.875Z,4584
2018-03-28T10:27:13.610Z,5164
2018-03-28T10:28:13.349Z,5012
2018-03-28T10:29:13.583Z,4536
2018-03-28T10:30:13.826Z,4788
2018-03-28T10:31:13.812Z,4852
2018-03-28T10:32:13.531Z,5096
2018-03-28T10:33:13.805Z,6252
2018-03-28T10:34:13.789Z,5728
2018-03-28T10:35:14.241Z,5292
2018-03-28T10:36:13.729Z,5712
2018-03-28T10:37:13.716Z,5192
2018-03-28T10:38:13.729Z,5352
2018-03-28T10:39:13.471Z,6324
2018-03-28T10:40:13.707Z,5568
2018-03-28T10:41:13.681Z,5592
2018-03-28T10:42:13.658Z,6012
2018-03-28T10:43:13.166Z,5088
2018-03-28T10:44:13.404Z,4932
2018-03-28T10:45:13.408Z,5124
2018-03-28T10:46:13.648Z,4684
2018-03-28T10:47:13.355Z,4728
2018-03-28T10:48:13.562Z,4792
2018-03-28T10:49:13.310Z,5484
2018-03-28T10:50:13.288Z,5628
2018-03-28T10:51:13.555Z,6000
2018-03-28T10:52:13.263Z,6200
2018-03-28T10:53:13.536Z,6452
2018-03-28T10:54:13.241Z,5356
2018-03-28T10:55:13.001Z,6120
2018-03-28T10:56:13.452Z,5616
2018-03-28T10:57:13.193Z,5820
2018-03-28T10:58:12.957Z,5236
2018-03-28T10:59:12.916Z,5948
2018-03-28T11:00:13.160Z,6200
2018-03-28T11:01:13.411Z,5984
2018-03-28T11:02:13.365Z,5296
2018-03-28T11:03:13.349Z,4500
2018-03-28T11:04:13.119Z,5284
2018-03-28T11:05:13.074Z,5456
2018-03-28T11:06:13.055Z,4748
2018-03-28T11:07:13.042Z,5580
2018-03-28T11:08:13.286Z,5460
2018-03-28T11:09:13.016Z,5340
2018-03-28T11:10:12.749Z,4880
2018-03-28T11:11:13.547Z,5156
2018-03-28T11:12:12.975Z,5492
2018-03-28T11:13:13.011Z,5376
2018-03-28T11:14:12.954Z,5180
2018-03-28T11:15:13.200Z,5196
2018-03-28T11:16:13.199Z,6424
2018-03-28T11:17:13.153Z,6004
2018-03-28T11:18:13.162Z,5744
2018-03-28T11:19:13.127Z,6244
2018-03-28T11:20:12.611Z,6444
2018-03-28T11:21:12.630Z,6644
2018-03-28T11:22:13.122Z,6488
2018-03-28T11:23:12.914Z,6344
2018-03-28T11:24:13.127Z,6488
2018-03-28T11:25:12.788Z,6136
2018-03-28T11:26:12.780Z,6624
2018-03-28T11:27:13.008Z,7232
2018-03-28T11:28:12.763Z,6920
2018-03-28T11:29:12.512Z,6192
2018-03-28T11:30:12.468Z,7192
2018-03-28T11:31:12.715Z,6528
2018-03-28T11:32:12.698Z,6592
2018-03-28T11:33:12.675Z,6116
2018-03-28T11:34:12.675Z,6856
2018-03-28T11:35:12.406Z,6332
2018-03-28T11:36:12.668Z,6596
2018-03-28T11:37:12.896Z,6900
2018-03-28T11:38:12.652Z,7344
2018-03-28T11:39:12.863Z,7280
2018-03-28T11:40:12.604Z,6948
2018-03-28T11:41:12.591Z,6860
2018-03-28T11:42:12.811Z,7212
2018-03-28T11:43:12.541Z,7028
2018-03-28T11:44:12.529Z,7660
2018-03-28T11:45:12.546Z,6976
2018-03-28T11:46:12.534Z,7924
2018-03-28T11:47:12.742Z,7152
2018-03-28T11:48:12.753Z,8852
2018-03-28T11:49:12.472Z,8836
2018-03-28T11:50:12.720Z,8428
2018-03-28T11:51:12.725Z,8304
2018-03-28T11:52:12.445Z,8272
2018-03-28T11:53:12.888Z,7912
2018-03-28T11:54:12.527Z,9108
2018-03-28T11:55:12.679Z,8240
2018-03-28T11:56:12.630Z,8280
2018-03-28T11:57:12.380Z,8728
2018-03-28T11:58:12.113Z,8880
2018-03-28T11:59:12.325Z,8484
2018-03-28T12:00:12.319Z,8692
2018-03-28T12:01:12.308Z,8824
2018-03-28T12:02:12.596Z,8076
2018-03-28T12:03:12.575Z,9480
2018-03-28T12:04:12.279Z,7940
2018-03-28T12:05:12.247Z,8204
2018-03-28T12:06:12.501Z,8608
2018-03-28T12:07:12.467Z,8144
2018-03-28T12:08:12.451Z,8976
2018-03-28T12:09:12.522Z,8428
2018-03-28T12:10:12.533Z,9268
2018-03-28T12:11:12.408Z,8536
2018-03-28T12:12:12.164Z,8696
2018-03-28T12:13:11.878Z,8252
2018-03-28T12:14:12.150Z,8708
2018-03-28T12:15:12.354Z,8960
2018-03-28T12:16:11.841Z,9724
2018-03-28T12:17:12.333Z,10004
2018-03-28T12:18:12.325Z,10840
2018-03-28T12:19:12.300Z,10220
2018-03-28T12:20:12.042Z,10072
2018-03-28T12:21:12.043Z,8980
2018-03-28T12:22:12.291Z,8572
2018-03-28T12:23:12.268Z,8408
2018-03-28T12:24:12.012Z,8972
2018-03-28T12:25:12.218Z,9300
2018-03-28T12:26:12.240Z,9604
2018-03-28T12:27:12.234Z,10200
2018-03-28T12:28:11.956Z,9328
2018-03-28T12:29:11.928Z,8884
2018-03-28T12:30:11.908Z,8468
2018-03-28T12:31:12.228Z,9156
2018-03-28T12:32:12.192Z,7768
2018-03-28T12:33:12.150Z,7124
2018-03-28T12:34:11.882Z,7104
2018-03-28T12:35:12.134Z,5900
2018-03-28T12:36:11.881Z,6404
2018-03-28T12:37:11.648Z,5996
2018-03-28T12:38:12.360Z,5540
2018-03-28T12:39:11.860Z,5876
2018-03-28T12:40:11.529Z,5700
2018-03-28T12:41:11.775Z,6532
2018-03-28T12:42:12.179Z,7556
2018-03-28T12:43:12.010Z,6948
2018-03-28T12:44:12.043Z,6352
2018-03-28T12:45:11.727Z,7812
2018-03-28T12:46:11.721Z,7868
2018-03-28T12:47:11.696Z,8708
2018-03-28T12:48:11.995Z,8724
2018-03-28T12:49:11.664Z,8740
2018-03-28T12:50:11.707Z,9900
2018-03-28T12:51:11.371Z,8440
2018-03-28T12:52:12.145Z,9540
2018-03-28T12:53:11.971Z,9336
2018-03-28T12:54:12.372Z,9216
2018-03-28T12:55:11.899Z,9416
2018-03-28T12:56:11.608Z,9956
2018-03-28T12:57:11.589Z,10188
2018-03-28T12:58:11.549Z,10444
2018-03-28T12:59:11.545Z,9808
2018-03-28T13:00:11.011Z,9664
2018-03-28T13:01:11.568Z,9172
2018-03-28T13:02:11.309Z,9300
2018-03-28T13:03:11.764Z,9976
2018-03-28T13:04:11.442Z,9416
2018-03-28T13:05:11.712Z,8984
2018-03-28T13:06:11.184Z,7632
2018-03-28T13:07:11.684Z,8476
2018-03-28T13:08:11.841Z,8448
2018-03-28T13:09:11.639Z,7624
2018-03-28T13:10:11.759Z,8068
2018-03-28T13:11:11.833Z,7948
2018-03-28T13:12:11.665Z,8672
2018-03-28T13:13:11.577Z,9396
2018-03-28T13:14:11.356Z,8920
2018-03-28T13:15:11.597Z,8888
2018-03-28T13:16:11.296Z,7972
2018-03-28T13:17:10.766Z,7764
2018-03-28T13:18:11.019Z,7604
2018-03-28T13:19:11.531Z,7964
2018-03-28T13:20:10.995Z,7564
2018-03-28T13:21:11.483Z,7764
2018-03-28T13:22:11.668Z,7736
2018-03-28T13:23:11.227Z,7432
2018-03-28T13:24:11.437Z,8280
2018-03-28T13:25:11.926Z,9132
2018-03-28T13:26:11.173Z,8212
2018-03-28T13:27:11.407Z,7956
2018-03-28T13:28:11.406Z,7548
2018-03-28T13:29:11.113Z,7264
2018-03-28T13:30:11.132Z,7924
2018-03-28T13:31:11.106Z,7968
2018-03-28T13:32:11.095Z,8696
2018-03-28T13:33:11.329Z,8532
2018-03-28T13:34:11.316Z,8540
2018-03-28T13:35:11.321Z,7800
2018-03-28T13:36:11.111Z,7780
2018-03-28T13:37:11.049Z,7900
2018-03-28T13:38:11.284Z,7988
2018-03-28T13:39:11.335Z,7668
2018-03-28T13:40:11.229Z,7228
2018-03-28T13:41:10.711Z,7936
2018-03-28T13:42:11.200Z,8016
2018-03-28T13:43:11.195Z,8492
2018-03-28T13:44:11.428Z,8768
2018-03-28T13:45:10.907Z,9616
2018-03-28T13:46:11.187Z,8480
2018-03-28T13:47:10.900Z,9968
2018-03-28T13:48:11.130Z,9524
2018-03-28T13:49:11.108Z,8364